Time;durP1;ratioP1;P1;durP2;ratioP2;P2;SDS_P1;SDS_P2;PMS_P1;PMS_P2;Temp;Humidity;BMP_temperature;BMP_pressure;BME280_temperature;BME280_humidity;BME280_pressure;Samples;Min_cycle;Max_cycle;Signal;HPM_P1;HPM_P2
2020/01/26 00:02:20;;;;;;;23.6;12.1;;;;;;;1.23;81.2207;940.2067;;;;
2020/01/26 00:04:45;;;;;;;23.1;11.3;;;;;;;1.23;81.30957;940.1646;;;;
2020/01/26 00:07:10;;;;;;;23.6;10.8;;;;;;;1.32;81.10352;940.2015;;;;
2020/01/26 00:09:35;;;;;;;21.6;10.5;;;;;;;1.38;80.68945;940.1869;;;;
2020/01/26 00:12:00;;;;;;;21.7;10.5;;;;;;;1.4;80.58301;940.1523;;;;
2020/01/26 00:14:25;;;;;;;22.6;11.4;;;;;;;1.45;80.33398;940.1067;;;;
2020/01/26 00:16:50;;;;;;;24.8;12.5;;;;;;;1.53;79.81348;940.1434;;;;
2020/01/26 00:19:17;;;;;;;20;9.6;;;;;;;1.45;79.91113;940.1641;;;;
2020/01/26 00:26:31;;;;;;;17.7;7.4;;;;;;;1.1;81.70801;940.1412;;;;
2020/01/26 00:28:57;;;;;;;15.2;6.6;;;;;;;1.07;82.08301;940.139;;;;
2020/01/26 00:31:22;;;;;;;14.5;5.9;;;;;;;1.13;82.02637;940.1066;;;;
2020/01/26 00:33:47;;;;;;;13.6;5.8;;;;;;;1.21;81.60645;940.158;;;;
2020/01/26 00:36:13;;;;;;;15.7;6;;;;;;;1.28;81.31836;940.1571;;;;
2020/01/26 00:38:38;;;;;;;16;5.3;;;;;;;1.37;80.81055;940.0737;;;;
2020/01/26 00:41:03;;;;;;;12.7;5.8;;;;;;;1.42;80.46289;940.0551;;;;
2020/01/26 00:43:28;;;;;;;12;5.7;;;;;;;1.46;80.36035;940.0554;;;;
2020/01/26 00:45:54;;;;;;;15.3;5.5;;;;;;;1.52;80.22363;940.0306;;;;
2020/01/26 00:48:19;;;;;;;15.4;6.1;;;;;;;1.58;80.03418;940.0065;;;;
2020/01/26 00:50:44;;;;;;;16.8;6.6;;;;;;;1.67;79.6377;940.014;;;;
2020/01/26 00:53:10;;;;;;;17.5;7;;;;;;;1.72;79.47949;939.9919;;;;
2020/01/26 00:55:35;;;;;;;16;7;;;;;;;1.69;79.58594;940.0432;;;;
2020/01/26 00:58:00;;;;;;;17.1;7.1;;;;;;;1.64;79.99023;939.9981;;;;
2020/01/26 01:00:25;;;;;;;16.7;6.8;;;;;;;1.69;79.87695;939.9741;;;;
2020/01/26 01:02:50;;;;;;;18.5;8.5;;;;;;;1.69;80.02246;940.0071;;;;
2020/01/26 01:05:17;;;;;;;20.9;9.3;;;;;;;1.74;79.88574;939.9739;;;;
2020/01/26 01:07:41;;;;;;;22.9;8.8;;;;;;;1.72;79.70313;939.9604;;;;
2020/01/26 01:13:31;;;;;;;18.9;9.2;;;;;;;1.79;79.44824;940.0157;;;;
2020/01/26 01:15:03;;;;;;;19.4;9.1;;;;;;;1.84;79.2334;939.9222;;;;
2020/01/26 01:17:22;;;;;;;16.3;8.2;;;;;;;1.88;79.10742;940.0201;;;;
2020/01/26 01:19:47;;;;;;;18.3;8.6;;;;;;;1.88;79.11719;940.0167;;;;
2020/01/26 01:22:12;;;;;;;17.9;7.5;;;;;;;1.92;78.95703;940.0145;;;;
2020/01/26 01:24:37;;;;;;;16.2;7.5;;;;;;;1.95;78.7627;940.0389;;;;
2020/01/26 01:27:03;;;;;;;17.1;7.9;;;;;;;1.92;78.85645;939.9983;;;;
2020/01/26 01:29:28;;;;;;;20.5;8.8;;;;;;;1.86;79.36133;939.9382;;;;
2020/01/26 01:31:53;;;;;;;15.9;7.7;;;;;;;1.9;79.18945;939.9786;;;;
2020/01/26 01:34:18;;;;;;;17.2;7.6;;;;;;;1.98;78.94531;939.9647;;;;
2020/01/26 01:36:43;;;;;;;18.2;7.6;;;;;;;2.04;78.62305;939.9487;;;;
2020/01/26 01:39:09;;;;;;;14.9;7.8;;;;;;;2.08;78.50488;939.9629;;;;
2020/01/26 01:41:34;;;;;;;16.5;7.3;;;;;;;2.11;78.43262;939.962;;;;
2020/01/26 01:43:59;;;;;;;15.4;7.7;;;;;;;2.14;78.27051;939.9185;;;;
2020/01/26 01:46:24;;;;;;;15.9;7.8;;;;;;;2.09;78.6875;939.8928;;;;
2020/01/26 01:48:49;;;;;;;17.4;7.9;;;;;;;2.06;78.66016;939.8312;;;;
2020/01/26 01:51:14;;;;;;;18.4;7.6;;;;;;;2.02;78.83008;939.8449;;;;
2020/01/26 01:53:39;;;;;;;16.4;7.2;;;;;;;1.93;79.11621;939.8471;;;;
2020/01/26 01:56:30;;;;;;;15.2;7.1;;;;;;;1.89;79.36426;939.7839;;;;
2020/01/26 01:58:37;;;;;;;15.7;7.2;;;;;;;1.91;79.55957;939.7181;;;;
2020/01/26 02:02:56;;;;;;;19.4;8.2;;;;;;;2.02;79;939.7422;;;;
2020/01/26 02:05:21;;;;;;;17.9;7.3;;;;;;;2.03;79.10059;939.726;;;;
2020/01/26 02:07:47;;;;;;;19.7;7.8;;;;;;;2.09;79.26953;939.7317;;;;
2020/01/26 02:10:12;;;;;;;17.2;7.3;;;;;;;2.11;78.75781;939.7399;;;;
2020/01/26 02:12:37;;;;;;;18;7.2;;;;;;;2.18;78.66992;939.7452;;;;
2020/01/26 02:15:02;;;;;;;15.4;7.5;;;;;;;2.2;78.66406;939.6828;;;;
2020/01/26 02:17:27;;;;;;;17.2;7.9;;;;;;;2.16;78.58887;939.6902;;;;
2020/01/26 02:19:52;;;;;;;18.7;7.7;;;;;;;2.08;78.8418;939.616;;;;
2020/01/26 02:22:17;;;;;;;16.6;7.4;;;;;;;1.93;79.15137;939.6172;;;;
2020/01/26 02:24:43;;;;;;;17.7;7;;;;;;;1.96;79.33301;939.6152;;;;
2020/01/26 02:27:08;;;;;;;18.2;7;;;;;;;2.01;79.09766;939.5824;;;;
2020/01/26 02:29:34;;;;;;;15.9;6.5;;;;;;;2.03;78.94434;939.5894;;;;
2020/01/26 02:35:16;;;;;;;14.8;6.2;;;;;;;2.01;79.03027;939.5824;;;;
2020/01/26 02:35:44;;;;;;;16.6;6.8;;;;;;;2;79.08398;939.5076;;;;
2020/01/26 02:37:37;;;;;;;16;6.6;;;;;;;1.93;79.46289;939.4866;;;;
2020/01/26 02:40:57;;;;;;;17.4;6.5;;;;;;;1.99;79.08398;939.4408;;;;
2020/01/26 02:43:00;;;;;;;15.4;6.8;;;;;;;1.97;79.28125;939.457;;;;
2020/01/26 02:45:25;;;;;;;16.5;6.5;;;;;;;1.95;79.16406;939.4476;;;;
2020/01/26 02:47:50;;;;;;;16.6;6.5;;;;;;;1.96;79.16699;939.4253;;;;
2020/01/26 02:50:15;;;;;;;15.9;6.3;;;;;;;1.91;79.31543;939.4561;;;;
2020/01/26 02:52:40;;;;;;;13.2;6.1;;;;;;;1.87;79.6875;939.4152;;;;
2020/01/26 02:55:06;;;;;;;14.2;5.5;;;;;;;1.85;79.77148;939.4306;;;;
2020/01/26 02:57:31;;;;;;;16.3;5.9;;;;;;;1.79;80.1416;939.4041;;;;
2020/01/26 02:59:56;;;;;;;16.3;5.8;;;;;;;1.76;80.31445;939.3845;;;;
2020/01/26 03:02:21;;;;;;;17.6;5.6;;;;;;;1.77;80.26172;939.3617;;;;
2020/01/26 03:04:46;;;;;;;12.3;5.2;;;;;;;1.82;79.96777;939.3137;;;;
2020/01/26 03:07:11;;;;;;;13.8;5.1;;;;;;;1.76;80.19238;939.3543;;;;
2020/01/26 03:09:37;;;;;;;18.3;5.5;;;;;;;1.83;79.87988;939.3142;;;;
2020/01/26 03:12:02;;;;;;;13.5;5.3;;;;;;;1.87;79.60938;939.3287;;;;
2020/01/26 03:14:27;;;;;;;12.4;5.5;;;;;;;1.96;79.13379;939.2526;;;;
2020/01/26 03:16:52;;;;;;;18.2;6;;;;;;;2.04;79.13574;939.3495;;;;
2020/01/26 03:19:17;;;;;;;12.8;5.7;;;;;;;2.05;78.78125;939.3156;;;;
2020/01/26 03:21:42;;;;;;;15.3;6.4;;;;;;;1.96;79.01074;939.3192;;;;
2020/01/26 03:24:07;;;;;;;17.2;7.7;;;;;;;1.93;79.22949;939.2686;;;;
2020/01/26 03:26:33;;;;;;;22.5;12.2;;;;;;;1.93;79.2832;939.2825;;;;
2020/01/26 03:28:57;;;;;;;15.9;6.7;;;;;;;1.78;79.79395;939.2586;;;;
2020/01/26 03:31:29;;;;;;;15.2;6.9;;;;;;;1.71;80.07031;939.1888;;;;
2020/01/26 03:33:48;;;;;;;14.3;6.1;;;;;;;1.71;80.19336;939.242;;;;
2020/01/26 03:36:13;;;;;;;18.1;5.6;;;;;;;1.7;80.25781;939.185;;;;
2020/01/26 03:38:38;;;;;;;15.9;6.1;;;;;;;1.68;80.2334;939.248;;;;
2020/01/26 03:41:03;;;;;;;14.1;5.9;;;;;;;1.71;80.23828;939.2422;;;;
2020/01/26 03:43:28;;;;;;;13.2;6;;;;;;;1.71;80.19238;939.2144;;;;
2020/01/26 03:45:53;;;;;;;13.2;5.8;;;;;;;1.73;80.01855;939.166;;;;
2020/01/26 03:48:18;;;;;;;17.3;5.9;;;;;;;1.65;80.40527;939.2104;;;;
2020/01/26 03:50:43;;;;;;;20.3;5.7;;;;;;;1.67;80.44238;939.2255;;;;
2020/01/26 03:53:09;;;;;;;16.5;5.6;;;;;;;1.77;80.03809;939.1114;;;;
2020/01/26 03:56:40;;;;;;;20.7;5.8;;;;;;;1.81;79.37305;939.2508;;;;
2020/01/26 03:59:06;;;;;;;12.6;5.4;;;;;;;1.67;80.04004;939.2255;;;;
2020/01/26 04:02:31;;;;;;;15.6;5.9;;;;;;;1.65;80.03613;939.2725;;;;
2020/01/26 04:04:55;;;;;;;15.5;5.5;;;;;;;1.56;80.64746;939.2188;;;;
2020/01/26 04:07:20;;;;;;;12;5;;;;;;;1.7;80.00195;939.2762;;;;
2020/01/26 04:09:54;;;;;;;11.7;5.3;;;;;;;1.64;79.97852;939.1683;;;;
2020/01/26 04:12:11;;;;;;;16.3;5.5;;;;;;;1.54;80.68652;939.293;;;;
2020/01/26 04:14:36;;;;;;;19.1;6;;;;;;;1.54;80.51855;939.2742;;;;
2020/01/26 04:17:03;;;;;;;15.9;6.3;;;;;;;1.5;80.9707;939.2751;;;;
2020/01/26 04:19:27;;;;;;;16.5;8.4;;;;;;;1.58;80.5166;939.3719;;;;
2020/01/26 04:21:51;;;;;;;22.4;11.1;;;;;;;1.62;80.17676;939.2916;;;;
2020/01/26 04:24:43;;;;;;;19.1;9.9;;;;;;;1.66;79.89453;939.364;;;;
2020/01/26 04:27:08;;;;;;;21.2;8.7;;;;;;;1.73;79.71582;939.301;;;;
2020/01/26 04:29:33;;;;;;;26.2;14.9;;;;;;;1.81;79.27441;939.3992;;;;
2020/01/26 04:32:21;;;;;;;29.4;17.1;;;;;;;1.82;79.05078;939.4105;;;;
2020/01/26 04:34:46;;;;;;;26;13.7;;;;;;;1.87;78.9043;939.3521;;;;
2020/01/26 04:37:11;;;;;;;23.1;11.5;;;;;;;1.86;78.86719;939.303;;;;
2020/01/26 04:39:36;;;;;;;18.1;9.2;;;;;;;1.79;79.22266;939.3906;;;;
2020/01/26 04:42:01;;;;;;;18;8.3;;;;;;;1.78;79.37988;939.4124;;;;
2020/01/26 04:44:26;;;;;;;15.7;7.9;;;;;;;1.85;79.22363;939.4629;;;;
2020/01/26 04:46:51;;;;;;;16.2;8;;;;;;;1.9;78.70801;939.381;;;;
2020/01/26 04:49:17;;;;;;;16.4;8.2;;;;;;;1.94;78.30176;939.4622;;;;
2020/01/26 04:51:42;;;;;;;17.9;8.1;;;;;;;1.97;78.24023;939.4758;;;;
2020/01/26 04:54:07;;;;;;;18;8.3;;;;;;;2.03;78.31738;939.4706;;;;
2020/01/26 04:56:48;;;;;;;22.5;9.4;;;;;;;2.03;78.29492;939.4769;;;;
2020/01/26 04:58:57;;;;;;;21;9.4;;;;;;;2.03;78.17188;939.4906;;;;
2020/01/26 05:01:22;;;;;;;18;8.6;;;;;;;2;77.96484;939.4469;;;;
2020/01/26 05:03:47;;;;;;;18;9.3;;;;;;;2;78.18945;939.4866;;;;
2020/01/26 05:06:12;;;;;;;18.9;8.5;;;;;;;1.99;78.2998;939.5097;;;;
2020/01/26 05:08:37;;;;;;;22.4;9.2;;;;;;;2.04;78.12891;939.5159;;;;
2020/01/26 05:11:02;;;;;;;21;8.4;;;;;;;2.04;77.77246;939.4706;;;;
2020/01/26 05:13:28;;;;;;;21;8.4;;;;;;;2.07;77.7998;939.4978;;;;
2020/01/26 05:15:53;;;;;;;19.2;7.9;;;;;;;2.03;78.04883;939.4849;;;;
2020/01/26 05:18:18;;;;;;;17.8;8.5;;;;;;;1.95;78.30176;939.4756;;;;
2020/01/26 05:20:43;;;;;;;19.2;8.4;;;;;;;1.87;78.65625;939.4925;;;;
2020/01/26 05:23:08;;;;;;;22.2;9.3;;;;;;;1.84;79.0332;939.4247;;;;
2020/01/26 05:25:33;;;;;;;21.6;8.9;;;;;;;1.82;79.10645;939.5463;;;;
2020/01/26 05:27:58;;;;;;;21.4;9.5;;;;;;;1.81;79.02637;939.469;;;;
2020/01/26 05:30:24;;;;;;;20.7;9.2;;;;;;;1.78;79.16504;939.522;;;;
2020/01/26 05:32:49;;;;;;;19.8;8.9;;;;;;;1.72;79.47949;939.4942;;;;
2020/01/26 05:35:14;;;;;;;22.9;9.3;;;;;;;1.71;79.58984;939.5389;;;;
2020/01/26 05:37:39;;;;;;;20.8;10.1;;;;;;;1.63;80.07813;939.562;;;;
2020/01/26 05:40:04;;;;;;;18.4;9.6;;;;;;;1.65;79.89258;939.5936;;;;
2020/01/26 05:42:29;;;;;;;21.5;9.3;;;;;;;1.71;79.68848;939.5739;;;;
2020/01/26 05:44:54;;;;;;;20.3;8.8;;;;;;;1.64;80.03516;939.6124;;;;
2020/01/26 05:47:20;;;;;;;20.8;8.4;;;;;;;1.59;80.35059;939.6439;;;;
2020/01/26 05:49:44;;;;;;;18;7.9;;;;;;;1.43;80.93262;939.5407;;;;
2020/01/26 05:52:10;;;;;;;20.2;7.6;;;;;;;1.42;81.11133;939.7029;;;;
2020/01/26 05:54:35;;;;;;;20.5;6.9;;;;;;;1.44;80.93652;939.7186;;;;
2020/01/26 05:57:00;;;;;;;20.5;6.3;;;;;;;1.43;80.88965;939.7417;;;;
2020/01/26 05:59:25;;;;;;;16.7;6.5;;;;;;;1.49;80.59961;939.7781;;;;
2020/01/26 06:01:50;;;;;;;22.1;6.4;;;;;;;1.59;80.03711;939.7938;;;;
2020/01/26 06:04:15;;;;;;;24.8;13;;;;;;;1.6;79.83789;939.7875;;;;
2020/01/26 06:06:41;;;;;;;28.9;11.6;;;;;;;1.61;80.32227;939.7896;;;;
2020/01/26 06:09:06;;;;;;;33;14.9;;;;;;;1.55;80.36426;939.7715;;;;
2020/01/26 06:11:31;;;;;;;36.4;19.9;;;;;;;1.49;80.33203;939.8315;;;;
2020/01/26 06:13:57;;;;;;;27.6;12.8;;;;;;;1.38;80.69141;939.7833;;;;
2020/01/26 06:16:22;;;;;;;25.6;11.9;;;;;;;1.46;80.64844;939.8747;;;;
2020/01/26 06:18:47;;;;;;;20.3;9;;;;;;;1.32;81.11523;939.9106;;;;
2020/01/26 06:21:12;;;;;;;17.2;7.9;;;;;;;1.23;81.62207;939.839;;;;
2020/01/26 06:23:37;;;;;;;17.8;7.5;;;;;;;1.25;81.62598;939.8209;;;;
2020/01/26 06:26:03;;;;;;;19.6;8.1;;;;;;;1.23;81.63379;939.8876;;;;
2020/01/26 06:28:28;;;;;;;20.3;7.6;;;;;;;1.21;81.72949;939.9062;;;;
2020/01/26 06:30:53;;;;;;;22.2;8.4;;;;;;;1.23;81.63379;939.8624;;;;
2020/01/26 06:33:18;;;;;;;23.6;12.3;;;;;;;1.27;81.52734;939.9417;;;;
2020/01/26 06:35:44;;;;;;;27.4;12.5;;;;;;;1.32;81.27148;939.95;;;;
2020/01/26 06:40:56;;;;;;;33.9;18.6;;;;;;;1.45;80.71582;940.0165;;;;
2020/01/26 06:43:03;;;;;;;31;16.8;;;;;;;1.47;80.125;939.9835;;;;
2020/01/26 06:45:25;;;;;;;31.7;15.7;;;;;;;1.54;80.07227;939.9945;;;;
2020/01/26 06:47:49;;;;;;;26.6;12.8;;;;;;;1.54;79.9043;939.9891;;;;
2020/01/26 06:50:14;;;;;;;23.4;9.5;;;;;;;1.48;80.02637;939.9572;;;;
2020/01/26 06:52:39;;;;;;;18.9;8.3;;;;;;;1.4;80.19141;939.9675;;;;
2020/01/26 06:55:04;;;;;;;18.4;8.9;;;;;;;1.45;80.17578;939.8978;;;;
2020/01/26 06:57:30;;;;;;;22;9.8;;;;;;;1.49;79.89551;939.9743;;;;
2020/01/26 06:59:55;;;;;;;23.4;9.3;;;;;;;1.45;79.98926;939.9836;;;;
2020/01/26 07:02:20;;;;;;;27.9;9.3;;;;;;;1.49;79.77246;940.0044;;;;
2020/01/26 07:04:46;;;;;;;21.5;8.5;;;;;;;1.61;79.38281;939.981;;;;
2020/01/26 07:07:11;;;;;;;21.5;8.6;;;;;;;1.73;78.92188;939.9155;;;;
2020/01/26 07:09:36;;;;;;;17.8;7.6;;;;;;;1.87;78.35645;940.0055;;;;
2020/01/26 07:12:02;;;;;;;18.5;7.6;;;;;;;1.92;78.08496;940.0311;;;;
2020/01/26 07:14:28;;;;;;;21.8;7.4;;;;;;;2.02;77.44434;940.0493;;;;
2020/01/26 07:16:52;;;;;;;21.3;8.1;;;;;;;2.04;77.34668;940.0541;;;;
2020/01/26 07:19:17;;;;;;;20.8;8.9;;;;;;;2.11;77.24609;940.0697;;;;
2020/01/26 07:21:43;;;;;;;24.7;9.9;;;;;;;2.04;77.43652;940.0352;;;;
2020/01/26 07:24:08;;;;;;;23.5;12.5;;;;;;;1.92;78.16309;940.0831;;;;
2020/01/26 07:26:34;;;;;;;25.4;16.8;;;;;;;1.93;78.37695;940.0654;;;;
2020/01/26 07:29:01;;;;;;;30.5;15.7;;;;;;;1.86;78.91211;940.0142;;;;
2020/01/26 07:31:24;;;;;;;27.9;13;;;;;;;1.95;78.85059;940.0575;;;;
2020/01/26 07:33:49;;;;;;;23.1;11.7;;;;;;;2.15;78.0498;940.0037;;;;
2020/01/26 07:36:14;;;;;;;25.3;11.8;;;;;;;2.42;77.29102;940.0466;;;;
2020/01/26 07:38:39;;;;;;;22.1;10.4;;;;;;;2.58;76.30078;940.1217;;;;
2020/01/26 07:41:04;;;;;;;22.6;12.9;;;;;;;2.68;76.12793;940.0678;;;;
2020/01/26 07:43:30;;;;;;;22.2;10.8;;;;;;;2.7;75.53711;940.0538;;;;
2020/01/26 07:45:55;;;;;;;26.7;12.4;;;;;;;2.7;75.81738;940.057;;;;
2020/01/26 07:48:20;;;;;;;24.3;12.3;;;;;;;2.68;75.80273;940.0285;;;;
2020/01/26 07:50:57;;;;;;;24.2;13;;;;;;;2.71;75.83008;940.0062;;;;
2020/01/26 07:53:23;;;;;;;24.9;11.8;;;;;;;2.73;75.48926;940.0081;;;;
2020/01/26 07:55:48;;;;;;;26.2;12.1;;;;;;;2.71;75.40527;940.0198;;;;
2020/01/26 07:58:13;;;;;;;25.6;13;;;;;;;2.66;75.25;940.0851;;;;
2020/01/26 08:00:38;;;;;;;29.2;15.2;;;;;;;2.66;75.53027;940.0468;;;;
2020/01/26 08:03:04;;;;;;;29.5;16.4;;;;;;;2.68;75.73535;940.1096;;;;
2020/01/26 08:05:29;;;;;;;35.9;21.7;;;;;;;2.77;75.71777;940.0991;;;;
2020/01/26 08:07:54;;;;;;;83.6;48.2;;;;;;;2.73;75.80176;940.1;;;;
2020/01/26 08:10:19;;;;;;;112.1;60.7;;;;;;;2.74;75.9707;940.1099;;;;
2020/01/26 08:12:45;;;;;;;69.4;40;;;;;;;2.8;76.17285;940.0455;;;;
2020/01/26 08:15:10;;;;;;;38.3;23.9;;;;;;;2.79;76.24805;940.0482;;;;
2020/01/26 08:17:35;;;;;;;28.1;13;;;;;;;2.83;75.6377;940.0452;;;;
2020/01/26 08:20:00;;;;;;;23.3;11.9;;;;;;;2.88;75.66992;940.0442;;;;
2020/01/26 08:22:27;;;;;;;29.1;13.4;;;;;;;2.95;75.66016;940.0363;;;;
2020/01/26 08:24:51;;;;;;;33.8;17.6;;;;;;;3.1;74.50977;940.0236;;;;
2020/01/26 08:27:16;;;;;;;30.8;15.3;;;;;;;3.08;74.06738;940.1037;;;;
2020/01/26 08:29:48;;;;;;;38.8;18;;;;;;;3.26;73.62891;940.009;;;;
2020/01/26 08:35:03;;;;;;;33.1;17.9;;;;;;;3.35;73.35059;940.0109;;;;
2020/01/26 08:36:56;;;;;;;38.4;20.7;;;;;;;3.49;73.33301;940.0215;;;;
2020/01/26 08:39:22;;;;;;;34.4;17.4;;;;;;;3.64;72.62695;940.0133;;;;
2020/01/26 08:41:47;;;;;;;31.7;16.6;;;;;;;3.78;71.77344;940.0059;;;;
2020/01/26 08:44:12;;;;;;;31.4;13.8;;;;;;;3.64;71.55957;939.9865;;;;
2020/01/26 08:46:37;;;;;;;27.9;13.7;;;;;;;3.69;71.64648;940.0499;;;;
2020/01/26 08:49:02;;;;;;;26.4;13.3;;;;;;;3.87;71.04688;940.0684;;;;
2020/01/26 08:51:27;;;;;;;54;27;;;;;;;4.03;70.81543;940.0471;;;;
2020/01/26 08:53:53;;;;;;;43.3;22.2;;;;;;;4.18;71.12109;940.0249;;;;
2020/01/26 08:56:18;;;;;;;54.6;25.8;;;;;;;4.35;70.35156;940.1047;;;;
2020/01/26 08:58:43;;;;;;;48.9;25.4;;;;;;;4.49;70.03613;940.0941;;;;
2020/01/26 09:01:08;;;;;;;50.7;26.3;;;;;;;4.67;69.13086;940.0722;;;;
2020/01/26 09:03:33;;;;;;;44.5;22.2;;;;;;;4.82;69.40234;940.0641;;;;
2020/01/26 09:05:59;;;;;;;48.2;26.8;;;;;;;4.84;68.2334;940.0671;;;;
2020/01/26 09:08:24;;;;;;;43.6;24.7;;;;;;;4.81;68.58008;939.9725;;;;
2020/01/26 09:10:49;;;;;;;45.5;24.1;;;;;;;4.85;68.47266;940.0117;;;;
2020/01/26 09:13:15;;;;;;;43.8;24.4;;;;;;;4.9;68.33398;940.0566;;;;
2020/01/26 09:15:40;;;;;;;41.5;20.8;;;;;;;4.95;67.49707;940.0402;;;;
2020/01/26 09:18:05;;;;;;;45.7;23.6;;;;;;;4.99;67.9668;940.1024;;;;
2020/01/26 09:20:30;;;;;;;39.8;23.6;;;;;;;5.08;67.5957;940.0547;;;;
2020/01/26 09:22:55;;;;;;;42.9;24.9;;;;;;;5.14;67.44727;940.0441;;;;
2020/01/26 09:25:20;;;;;;;43.2;25.1;;;;;;;5.17;67.63281;940.0072;;;;
2020/01/26 09:27:45;;;;;;;37.7;21.4;;;;;;;5.02;66.57324;939.9331;;;;
2020/01/26 09:30:11;;;;;;;41.2;24.1;;;;;;;4.86;67.11133;939.9844;;;;
2020/01/26 09:32:43;;;;;;;44.4;25.9;;;;;;;4.84;67.69434;939.9963;;;;
2020/01/26 09:35:01;;;;;;;43.1;25.5;;;;;;;4.98;67.85059;939.9408;;;;
2020/01/26 09:37:26;;;;;;;39.1;21.3;;;;;;;5.13;66.67969;939.972;;;;
2020/01/26 09:39:51;;;;;;;44.9;25.5;;;;;;;5.25;66.68555;939.9177;;;;
2020/01/26 09:42:16;;;;;;;49.1;29;;;;;;;5.33;66.71094;939.8918;;;;
2020/01/26 09:44:41;;;;;;;45.7;26.7;;;;;;;5.33;66.20313;939.9108;;;;
2020/01/26 09:47:07;;;;;;;46.7;28.6;;;;;;;5.38;66.48242;939.9156;;;;
2020/01/26 09:49:32;;;;;;;46.5;25.4;;;;;;;5.61;65.93262;939.9163;;;;
2020/01/26 09:51:57;;;;;;;47.5;26.3;;;;;;;5.85;64.65723;939.926;;;;
2020/01/26 09:54:22;;;;;;;46.7;25.6;;;;;;;6.02;64.44531;939.9386;;;;
2020/01/26 09:56:47;;;;;;;40.4;21.7;;;;;;;6.14;62.57617;939.908;;;;
2020/01/26 09:59:12;;;;;;;34.5;19.4;;;;;;;6.13;62.02051;939.907;;;;
2020/01/26 10:01:38;;;;;;;34.7;19.7;;;;;;;6.23;61.74316;939.9294;;;;
2020/01/26 10:04:03;;;;;;;29.9;14.4;;;;;;;6.02;61.24805;939.9111;;;;
2020/01/26 10:06:28;;;;;;;27;13.1;;;;;;;6.02;61.02246;939.9174;;;;
2020/01/26 10:08:54;;;;;;;29.5;12.3;;;;;;;6.43;60.75391;939.9391;;;;
2020/01/26 10:11:19;;;;;;;24.6;11.2;;;;;;;6.66;58.375;939.9542;;;;
2020/01/26 10:13:44;;;;;;;26.6;13;;;;;;;6.88;58.67773;939.9587;;;;
2020/01/26 10:18:50;;;;;;;26.3;13.1;;;;;;;6.78;58.03027;939.8815;;;;
2020/01/26 10:21:04;;;;;;;28.2;12.9;;;;;;;6.99;57.94531;939.7976;;;;
2020/01/26 10:24:04;;;;;;;28;12.6;;;;;;;7.2;58.20996;939.8466;;;;
2020/01/26 10:27:28;;;;;;;26.6;13.2;;;;;;;7.54;57.84961;939.8158;;;;
2020/01/26 10:28:48;;;;;;;26.6;12.9;;;;;;;7.75;56.94727;939.7725;;;;
2020/01/26 10:33:21;;;;;;;28.2;13;;;;;;;8.31;56.51074;939.7567;;;;
2020/01/26 10:36:12;;;;;;;31.3;13.3;;;;;;;8.56;55.81543;939.6906;;;;
2020/01/26 10:37:55;;;;;;;41.4;20.2;;;;;;;8.67;54.27246;939.6541;;;;
2020/01/26 10:40:20;;;;;;;47.8;23;;;;;;;8.7;54.59473;939.6778;;;;
2020/01/26 10:42:45;;;;;;;41.5;21.2;;;;;;;8.74;54.87207;939.5871;;;;
2020/01/26 10:45:10;;;;;;;39.4;19.6;;;;;;;8.83;54.28125;939.516;;;;
2020/01/26 10:47:35;;;;;;;33.7;16.3;;;;;;;8.86;54.18164;939.449;;;;
2020/01/26 10:50:00;;;;;;;34.7;17.7;;;;;;;8.94;54.41992;939.5577;;;;
2020/01/26 10:52:26;;;;;;;31.8;17.1;;;;;;;9.14;53.39746;939.4764;;;;
2020/01/26 10:54:51;;;;;;;35.2;14.2;;;;;;;9.33;54.08301;939.4401;;;;
2020/01/26 10:57:16;;;;;;;29.3;13.2;;;;;;;9.47;51.79883;939.3893;;;;
2020/01/26 10:59:41;;;;;;;27.9;10.4;;;;;;;9.31;50.52832;939.2784;;;;
2020/01/26 11:02:06;;;;;;;33.1;10.6;;;;;;;9.35;50.6123;939.2814;;;;
2020/01/26 11:04:31;;;;;;;30.3;10.5;;;;;;;9.47;49.44141;939.2668;;;;
2020/01/26 11:06:56;;;;;;;26.6;9.2;;;;;;;9.68;48.54297;939.2511;;;;
2020/01/26 11:09:21;;;;;;;30;8.9;;;;;;;9.77;47.50391;939.2302;;;;
2020/01/26 11:11:46;;;;;;;38.8;9.1;;;;;;;9.59;48.69238;939.1375;;;;
2020/01/26 11:14:12;;;;;;;30.6;10.1;;;;;;;9.7;49.33008;939.1178;;;;
2020/01/26 11:16:37;;;;;;;58.5;29.9;;;;;;;9.86;48.2666;939.0726;;;;
2020/01/26 11:19:02;;;;;;;42.8;18.3;;;;;;;9.86;48.3457;939.0192;;;;
2020/01/26 11:21:27;;;;;;;30.2;12.3;;;;;;;10.09;49.39844;939.0313;;;;
2020/01/26 11:23:52;;;;;;;30;11;;;;;;;10.42;48.56934;939.0367;;;;
2020/01/26 11:26:17;;;;;;;33.4;10.9;;;;;;;10.63;48.3418;938.9868;;;;
2020/01/26 11:28:42;;;;;;;37.7;11.4;;;;;;;10.91;48.69238;938.957;;;;
2020/01/26 11:31:08;;;;;;;29.1;9.6;;;;;;;11.25;47.65527;938.8697;;;;
2020/01/26 11:33:33;;;;;;;22.6;7.2;;;;;;;11.48;45.74707;938.8342;;;;
2020/01/26 11:35:58;;;;;;;23.9;7;;;;;;;11.64;45.88965;938.8434;;;;
2020/01/26 11:41:48;;;;;;;21.4;6.5;;;;;;;12.06;43.49414;938.7508;;;;
2020/01/26 11:43:13;;;;;;;22.8;6.6;;;;;;;12.1;43.73926;938.7692;;;;
2020/01/26 11:45:39;;;;;;;27.5;7.3;;;;;;;12.24;42.49121;938.6919;;;;
2020/01/26 11:48:05;;;;;;;37;10.8;;;;;;;12.47;41.10352;938.6642;;;;
2020/01/26 11:50:29;;;;;;;36.1;8.9;;;;;;;12.57;41.10156;938.6476;;;;
2020/01/26 11:52:55;;;;;;;41.2;7.5;;;;;;;12.82;40.04688;938.655;;;;
2020/01/26 11:55:20;;;;;;;28;6.3;;;;;;;13.09;39.38184;938.6021;;;;
2020/01/26 11:57:45;;;;;;;34.3;6.8;;;;;;;13.52;38.96094;938.6259;;;;
2020/01/26 12:03:20;;;;;;;30.2;8.7;;;;;;;15.23;35.33984;938.4227;;;;
2020/01/26 12:05:02;;;;;;;26.1;7;;;;;;;15.85;33.99219;938.5081;;;;
2020/01/26 12:07:26;;;;;;;24.2;6.1;;;;;;;16.06;34.12305;938.4329;;;;
2020/01/26 12:09:51;;;;;;;23.4;5.6;;;;;;;16.51;32.9668;938.4095;;;;
2020/01/26 12:12:16;;;;;;;24.6;5.8;;;;;;;16.78;32.63965;938.4241;;;;
2020/01/26 12:14:41;;;;;;;22.9;6.1;;;;;;;16.97;32.46777;938.3508;;;;
2020/01/26 12:17:33;;;;;;;26.4;5.6;;;;;;;16.94;32.01367;938.3875;;;;
2020/01/26 12:19:32;;;;;;;25.8;5.4;;;;;;;16.7;33.32813;938.3335;;;;
2020/01/26 12:24:44;;;;;;;18.3;5.2;;;;;;;16.04;32.91895;938.2975;;;;
2020/01/26 12:26:48;;;;;;;20.7;5.1;;;;;;;15.76;33.22168;938.2983;;;;
2020/01/26 12:29:12;;;;;;;23.1;4.9;;;;;;;15.52;32.99609;938.2961;;;;
2020/01/26 12:31:37;;;;;;;23.2;5.1;;;;;;;15.28;33.50781;938.2281;;;;
2020/01/26 12:34:03;;;;;;;23.9;5.1;;;;;;;15.16;33.56836;938.1575;;;;
2020/01/26 12:36:27;;;;;;;21.7;5.3;;;;;;;15.15;34.15625;938.1512;;;;
2020/01/26 12:38:53;;;;;;;27.5;6.2;;;;;;;15.22;35.1084;938.1702;;;;
2020/01/26 12:41:18;;;;;;;30.4;6.7;;;;;;;15.14;36.17578;938.1296;;;;
2020/01/26 12:43:43;;;;;;;23;6.8;;;;;;;14.97;35.67676;938.1018;;;;
2020/01/26 12:46:08;;;;;;;21.1;6.3;;;;;;;14.63;36.45605;938.14;;;;
2020/01/26 12:48:33;;;;;;;21.6;6.4;;;;;;;14.42;36.64551;938.0853;;;;
2020/01/26 12:50:58;;;;;;;25.1;6.6;;;;;;;14.26;37.27637;938.1276;;;;
2020/01/26 12:53:23;;;;;;;26.6;6.7;;;;;;;14.14;35.7002;938.0742;;;;
2020/01/26 12:55:49;;;;;;;23.4;6.9;;;;;;;14.11;36.71094;938.0223;;;;
2020/01/26 12:58:14;;;;;;;24.3;7.3;;;;;;;14.18;36.85449;938.0308;;;;
2020/01/26 13:00:39;;;;;;;26.4;7.5;;;;;;;14.41;36.16016;937.9578;;;;
2020/01/26 13:03:04;;;;;;;17.4;7.3;;;;;;;14.59;35.97949;937.9348;;;;
2020/01/26 13:05:29;;;;;;;24.6;7.8;;;;;;;14.28;36.28809;938.0242;;;;
2020/01/26 13:07:54;;;;;;;23.5;7.8;;;;;;;14.03;37.34961;938.005;;;;
2020/01/26 13:10:19;;;;;;;29.6;8.4;;;;;;;14.04;37.13184;937.9568;;;;
2020/01/26 13:12:44;;;;;;;27.9;7.6;;;;;;;13.44;38.80469;937.962;;;;
2020/01/26 13:15:09;;;;;;;25.2;6.6;;;;;;;12.87;39.28125;937.9838;;;;
2020/01/26 13:17:35;;;;;;;23.4;6.3;;;;;;;13.12;38.98242;937.952;;;;
2020/01/26 13:20:00;;;;;;;22.5;6.3;;;;;;;13.38;38.32813;937.9739;;;;
2020/01/26 13:22:25;;;;;;;30.9;7.2;;;;;;;13.46;37.8291;938.0268;;;;
2020/01/26 13:24:50;;;;;;;24.4;6.1;;;;;;;13.31;38.37891;938.0388;;;;
2020/01/26 13:27:15;;;;;;;24.1;5.1;;;;;;;13.11;38.67188;937.9769;;;;
2020/01/26 13:29:40;;;;;;;23.8;4.6;;;;;;;12.81;39.49414;938.0275;;;;
2020/01/26 13:32:05;;;;;;;25.1;4.6;;;;;;;12.44;40.32129;937.9389;;;;
2020/01/26 13:34:30;;;;;;;20.8;5.1;;;;;;;12.32;40.62988;937.9512;;;;
2020/01/26 13:36:56;;;;;;;17.9;4.6;;;;;;;12.38;40.86523;938.0159;;;;
2020/01/26 13:39:21;;;;;;;21.3;4.4;;;;;;;12.39;40.95898;938.0048;;;;
2020/01/26 13:41:46;;;;;;;17.7;4.4;;;;;;;12.23;41.94043;938.0644;;;;
2020/01/26 13:44:11;;;;;;;24;5;;;;;;;12.05;42.42773;938.0867;;;;
2020/01/26 13:46:37;;;;;;;25.7;4.8;;;;;;;11.9;42.29883;938.0818;;;;
2020/01/26 13:49:02;;;;;;;21.3;4.9;;;;;;;11.9;42.76855;938.0683;;;;
2020/01/26 13:51:27;;;;;;;33.6;6;;;;;;;11.74;43.25586;938.111;;;;
2020/01/26 13:53:52;;;;;;;28.7;5.9;;;;;;;11.68;43.31836;938.1186;;;;
2020/01/26 13:56:17;;;;;;;33.5;5.7;;;;;;;11.47;44.29199;938.1619;;;;
2020/01/26 13:58:42;;;;;;;24.1;5.3;;;;;;;11.44;43.77539;938.1769;;;;
2020/01/26 14:01:07;;;;;;;18.6;4.3;;;;;;;11.37;43.96289;938.1722;;;;
2020/01/26 14:03:32;;;;;;;19.2;4.9;;;;;;;11.16;44.02051;938.2255;;;;
2020/01/26 14:05:58;;;;;;;25.3;4.6;;;;;;;10.93;44.31738;938.2291;;;;
2020/01/26 14:08:23;;;;;;;31.9;10;;;;;;;10.82;45.13965;938.2512;;;;
2020/01/26 14:10:48;;;;;;;26.8;5.3;;;;;;;10.86;45.91016;938.2349;;;;
2020/01/26 14:13:13;;;;;;;27.3;6.1;;;;;;;10.94;46.58105;938.2586;;;;
2020/01/26 14:15:38;;;;;;;45.2;9.1;;;;;;;10.85;47.29199;938.2356;;;;
2020/01/26 14:18:04;;;;;;;24.2;5.9;;;;;;;10.83;47.08301;938.2967;;;;
2020/01/26 14:20:30;;;;;;;24.7;6.4;;;;;;;10.81;46.51074;938.2561;;;;
2020/01/26 14:22:54;;;;;;;23.3;4.6;;;;;;;10.61;46.56934;938.3432;;;;
2020/01/26 14:25:19;;;;;;;30.8;6;;;;;;;10.44;47.21191;938.3269;;;;
2020/01/26 14:27:44;;;;;;;33.1;7.5;;;;;;;10.46;47.29395;938.3343;;;;
2020/01/26 14:30:09;;;;;;;31;6.2;;;;;;;10.48;47.59375;938.2996;;;;
2020/01/26 14:32:34;;;;;;;25.2;5.3;;;;;;;10.46;47.86426;938.3478;;;;
2020/01/26 14:35:00;;;;;;;29.3;5.6;;;;;;;10.53;47.40527;938.3111;;;;
2020/01/26 14:37:25;;;;;;;18.2;4.7;;;;;;;10.6;47.92773;938.3499;;;;